createdAt,value
2022-10-26T00:01:15.726Z,64.04
2022-10-26T00:03:44.134Z,63.70
2022-10-26T00:06:17.028Z,63.89
2022-10-26T00:08:44.625Z,63.93
2022-10-26T00:11:12.410Z,64.06
2022-10-26T00:13:40.753Z,63.71
2022-10-26T00:16:09.930Z,63.77
2022-10-26T00:18:36.812Z,64.10
2022-10-26T00:21:07.630Z,64.26
2022-10-26T00:23:34.615Z,64.58
2022-10-26T00:26:01.636Z,64.46
2022-10-26T00:28:28.628Z,64.64
2022-10-26T00:30:55.886Z,64.15
2022-10-26T00:33:22.741Z,64.75
2022-10-26T00:35:53.859Z,64.69
2022-10-26T00:38:21.000Z,64.93
2022-10-26T00:40:48.192Z,65.21
2022-10-26T00:43:36.131Z,65.21
2022-10-26T00:46:06.860Z,65.71
2022-10-26T00:48:42.088Z,66.00
2022-10-26T00:51:15.755Z,65.70
2022-10-26T00:53:43.270Z,65.47
2022-10-26T00:56:10.371Z,65.70
2022-10-26T00:58:38.830Z,65.23
2022-10-26T01:01:05.737Z,65.80
2022-10-26T01:03:34.685Z,65.78
2022-10-26T01:06:04.361Z,66.50
2022-10-26T01:08:31.818Z,66.31
2022-10-26T01:11:00.433Z,66.41
2022-10-26T01:13:31.077Z,66.84
2022-10-26T01:16:29.162Z,67.26
2022-10-26T01:19:23.481Z,67.51
2022-10-26T01:22:00.858Z,68.45
2022-10-26T01:24:36.535Z,67.95
2022-10-26T01:27:25.299Z,68.65
2022-10-26T01:30:10.463Z,68.48
2022-10-26T01:33:01.334Z,68.37
2022-10-26T01:35:37.255Z,69.03
2022-10-26T01:38:36.486Z,68.86
2022-10-26T01:41:28.289Z,68.27
2022-10-26T01:44:43.042Z,68.39
2022-10-26T01:47:13.636Z,68.81
2022-10-26T01:49:48.496Z,68.52
2022-10-26T01:52:15.465Z,68.61
2022-10-26T01:54:42.320Z,68.95
2022-10-26T01:57:12.148Z,69.13
2022-10-26T02:00:03.385Z,69.44
2022-10-26T02:03:04.548Z,70.62
2022-10-26T02:05:34.082Z,70.89
2022-10-26T02:08:28.890Z,70.45
2022-10-26T02:11:10.934Z,70.73
2022-10-26T02:14:18.473Z,70.54
2022-10-26T02:16:45.333Z,70.66
2022-10-26T02:19:15.056Z,70.69
2022-10-26T02:21:47.664Z,70.74
2022-10-26T02:24:16.901Z,70.77
2022-10-26T02:26:47.682Z,70.93
2022-10-26T02:29:19.433Z,71.18
2022-10-26T02:31:50.304Z,70.58
2022-10-26T02:34:22.753Z,70.77
2022-10-26T02:36:53.818Z,71.53
2022-10-26T02:39:22.050Z,71.52
2022-10-26T02:41:50.056Z,71.59
2022-10-26T02:44:23.875Z,71.41
2022-10-26T02:46:52.063Z,71.88
2022-10-26T02:49:19.605Z,71.66
2022-10-26T02:51:50.628Z,71.30
2022-10-26T02:55:01.023Z,71.52
2022-10-26T02:57:42.400Z,71.51
2022-10-26T03:00:11.891Z,71.66
2022-10-26T03:02:38.966Z,71.88
2022-10-26T03:05:22.927Z,71.96
2022-10-26T03:26:03.839Z,78.11
2022-10-26T03:28:31.440Z,77.87
2022-10-26T03:30:58.208Z,77.70
2022-10-26T03:33:27.096Z,77.29
2022-10-26T03:35:57.989Z,77.41
2022-10-26T03:38:25.085Z,77.17
2022-10-26T03:40:52.009Z,77.31
2022-10-26T03:43:19.007Z,77.21
2022-10-26T03:45:46.057Z,77.53
2022-10-26T03:48:13.285Z,77.57
2022-10-26T03:50:40.148Z,77.75
2022-10-26T03:53:06.956Z,78.16
2022-10-26T03:55:33.843Z,78.07
2022-10-26T03:58:00.622Z,77.54
2022-10-26T04:00:27.466Z,77.64
2022-10-26T04:02:59.304Z,77.69
2022-10-26T04:05:28.418Z,77.96
2022-10-26T04:08:00.390Z,78.19
2022-10-26T04:10:27.857Z,78.29
2022-10-26T04:12:55.558Z,78.74
2022-10-26T04:15:22.764Z,78.26
2022-10-26T04:17:55.991Z,78.49
2022-10-26T04:20:22.828Z,78.60
2022-10-26T04:22:59.289Z,78.65
2022-10-26T04:25:28.751Z,78.94
2022-10-26T04:27:59.649Z,78.79
2022-10-26T04:30:26.792Z,78.87
2022-10-26T04:32:53.774Z,79.27
2022-10-26T04:35:20.701Z,79.09
2022-10-26T04:37:47.717Z,78.89
2022-10-26T04:40:14.661Z,79.07
2022-10-26T04:42:46.842Z,79.36
2022-10-26T04:45:16.159Z,79.56
2022-10-26T04:47:43.306Z,79.97
2022-10-26T04:50:12.155Z,79.34
2022-10-26T04:52:38.957Z,80.42
2022-10-26T04:55:07.037Z,80.02
2022-10-26T04:57:34.801Z,79.90
2022-10-26T05:00:03.737Z,80.33
2022-10-26T05:02:30.810Z,79.84
2022-10-26T05:04:57.770Z,79.08
2022-10-26T05:07:24.659Z,79.27
2022-10-26T05:09:51.495Z,78.32
2022-10-26T05:12:18.345Z,78.27
2022-10-26T05:14:45.208Z,77.01
2022-10-26T05:17:12.030Z,76.79
2022-10-26T05:19:38.949Z,76.21
2022-10-26T05:22:05.825Z,75.71
2022-10-26T05:24:32.744Z,75.75
2022-10-26T05:26:59.626Z,75.54
2022-10-26T05:29:26.439Z,75.04
2022-10-26T05:31:53.333Z,74.60
2022-10-26T05:34:20.146Z,74.13
2022-10-26T05:36:46.980Z,73.35
2022-10-26T05:39:13.902Z,72.79
2022-10-26T05:41:40.733Z,73.14
2022-10-26T05:44:07.580Z,72.57
2022-10-26T05:46:34.428Z,72.28
2022-10-26T05:49:01.340Z,72.79
2022-10-26T05:51:28.157Z,72.05
2022-10-26T05:53:54.993Z,71.19
2022-10-26T05:56:35.379Z,71.09
2022-10-26T05:59:02.897Z,70.99
2022-10-26T06:01:50.210Z,70.27
2022-10-26T06:04:22.745Z,70.61
2022-10-26T06:06:54.690Z,70.76
2022-10-26T06:09:21.933Z,70.79
2022-10-26T06:14:17.164Z,71.18
2022-10-26T06:16:55.447Z,70.50
2022-10-26T06:19:28.046Z,69.94
2022-10-26T06:22:27.089Z,69.45
2022-10-26T06:25:20.062Z,69.59
2022-10-26T06:28:03.701Z,68.25
2022-10-26T06:30:30.592Z,68.49
2022-10-26T06:33:05.629Z,68.70
2022-10-26T06:35:55.306Z,67.20
2022-10-26T06:38:25.254Z,67.05
2022-10-26T06:40:55.548Z,67.38
2022-10-26T06:43:28.354Z,67.27
2022-10-26T06:46:07.678Z,67.83
2022-10-26T06:48:49.937Z,67.76
2022-10-26T06:51:18.265Z,67.16
2022-10-26T06:54:10.813Z,66.70
2022-10-26T06:56:37.921Z,67.56
2022-10-26T06:59:13.374Z,67.45
2022-10-26T07:01:40.445Z,68.02
2022-10-26T07:04:07.389Z,67.26
2022-10-26T07:06:36.833Z,67.56
2022-10-26T07:09:06.044Z,66.93
2022-10-26T07:11:32.873Z,67.54
2022-10-26T07:13:59.748Z,67.55
2022-10-26T07:16:28.003Z,66.74
2022-10-26T07:18:54.974Z,65.85
2022-10-26T07:21:21.864Z,66.14
2022-10-26T07:23:48.692Z,66.81
2022-10-26T07:26:15.574Z,66.15
2022-10-26T07:28:42.520Z,67.24
2022-10-26T07:31:09.393Z,66.62
2022-10-26T07:33:39.434Z,66.63
2022-10-26T07:36:11.022Z,66.23
2022-10-26T07:38:39.228Z,66.77
2022-10-26T07:41:06.619Z,60.02
2022-10-26T07:43:33.427Z,50.78
2022-10-26T07:46:00.272Z,46.16
2022-10-26T07:48:27.158Z,40.16
2022-10-26T07:50:54.080Z,36.90
2022-10-26T07:53:24.017Z,33.32
2022-10-26T07:55:58.807Z,32.89
2022-10-26T07:58:27.289Z,32.17
2022-10-26T08:00:54.234Z,30.76
2022-10-26T08:03:21.993Z,29.74
2022-10-26T08:05:51.448Z,32.41
2022-10-26T08:08:18.509Z,28.82
2022-10-26T08:10:46.297Z,29.36
2022-10-26T08:13:14.252Z,29.73
2022-10-26T08:15:41.451Z,30.09
2022-10-26T08:18:08.303Z,28.28
2022-10-26T08:20:35.162Z,28.93
2022-10-26T08:23:04.008Z,26.59
2022-10-26T08:25:30.893Z,28.04
2022-10-26T08:28:01.793Z,29.63
2022-10-26T08:30:29.972Z,29.02
2022-10-26T08:33:05.419Z,28.71
2022-10-26T08:35:33.057Z,31.31
2022-10-26T08:38:00.570Z,31.13
2022-10-26T08:40:31.657Z,31.11
2022-10-26T08:43:16.948Z,35.70
2022-10-26T08:45:50.859Z,35.57
2022-10-26T08:48:22.415Z,39.12
2022-10-26T08:50:54.644Z,38.42
2022-10-26T08:53:44.174Z,35.79
2022-10-26T08:56:26.173Z,34.26
2022-10-26T08:58:59.040Z,31.44
2022-10-26T09:01:26.006Z,31.95
2022-10-26T09:03:52.966Z,35.12
2022-10-26T09:06:35.137Z,38.69
2022-10-26T09:09:21.689Z,33.36
2022-10-26T09:12:09.610Z,31.25
2022-10-26T09:15:00.942Z,26.60
2022-10-26T09:17:38.437Z,28.89
2022-10-26T09:20:26.961Z,30.48
2022-10-26T09:23:14.781Z,32.15
2022-10-26T09:25:42.162Z,29.95
2022-10-26T09:28:17.903Z,28.24
2022-10-26T09:30:48.683Z,29.52
2022-10-26T09:33:26.600Z,30.11
2022-10-26T09:36:01.370Z,30.89
2022-10-26T09:38:53.157Z,29.61
2022-10-26T09:41:31.982Z,29.10
2022-10-26T09:44:18.605Z,24.67
2022-10-26T09:47:23.681Z,23.33
2022-10-26T09:49:58.304Z,22.94
2022-10-26T09:52:25.267Z,20.27
2022-10-26T09:54:52.088Z,20.42
2022-10-26T09:57:20.449Z,17.29
2022-10-26T09:59:48.180Z,18.09
2022-10-26T10:02:40.132Z,18.66
2022-10-26T10:05:50.208Z,18.63
2022-10-26T10:08:19.700Z,15.30
2022-10-26T10:11:14.351Z,17.06
2022-10-26T10:13:43.510Z,20.35
2022-10-26T10:16:23.988Z,24.46
2022-10-26T10:18:56.316Z,27.29
2022-10-26T10:21:44.519Z,31.12
2022-10-26T10:24:41.967Z,33.48
2022-10-26T10:27:17.598Z,37.05
2022-10-26T10:29:47.620Z,38.02
2022-10-26T10:32:22.364Z,50.32
2022-10-26T10:34:54.454Z,51.48
2022-10-26T10:37:30.900Z,51.50
2022-10-26T10:40:02.575Z,50.59
2022-10-26T10:42:41.101Z,50.49
2022-10-26T10:45:20.747Z,48.71
2022-10-26T10:48:20.739Z,47.92
2022-10-26T10:51:01.664Z,44.22
2022-10-26T10:53:37.422Z,49.41
2022-10-26T10:56:11.637Z,51.56
2022-10-26T10:58:41.481Z,52.88
2022-10-26T11:01:14.447Z,53.24
2022-10-26T11:04:16.985Z,51.51
2022-10-26T11:06:45.695Z,52.36
2022-10-26T11:09:17.215Z,53.67
2022-10-26T11:11:49.993Z,50.85
2022-10-26T11:14:35.516Z,42.52
2022-10-26T11:17:14.189Z,38.17
2022-10-26T11:19:54.481Z,38.51
2022-10-26T11:22:26.772Z,40.69
2022-10-26T11:24:59.721Z,37.08
2022-10-26T11:27:39.709Z,33.85
2022-10-26T11:30:15.081Z,29.14
2022-10-26T11:32:47.707Z,29.21
2022-10-26T11:35:19.719Z,29.98
2022-10-26T11:38:01.826Z,30.30
2022-10-26T11:40:45.794Z,30.27
2022-10-26T11:43:41.008Z,29.19
2022-10-26T11:46:19.115Z,29.34
2022-10-26T11:49:01.416Z,31.68
2022-10-26T11:51:50.917Z,33.79
2022-10-26T11:54:45.818Z,36.90
2022-10-26T11:57:13.002Z,38.08
2022-10-26T11:59:46.614Z,40.38
2022-10-26T12:02:32.593Z,44.45
2022-10-26T12:05:20.458Z,46.39
2022-10-26T12:07:55.856Z,47.40
2022-10-26T12:10:32.460Z,49.40
2022-10-26T12:12:59.232Z,49.33
2022-10-26T12:16:03.147Z,50.76
2022-10-26T12:18:55.541Z,52.28
2022-10-26T12:21:27.635Z,53.41
2022-10-26T12:24:30.203Z,53.49
2022-10-26T12:27:04.144Z,53.16
2022-10-26T12:29:36.993Z,53.09
2022-10-26T12:32:25.090Z,52.93
2022-10-26T12:34:51.875Z,52.66
2022-10-26T12:37:51.014Z,52.05
2022-10-26T12:40:33.234Z,51.67
2022-10-26T12:43:18.237Z,51.91
2022-10-26T12:45:47.025Z,51.36
2022-10-26T12:48:42.402Z,51.57
2022-10-26T12:51:27.109Z,52.11
2022-10-26T12:53:59.653Z,51.88
2022-10-26T12:56:42.565Z,51.15
2022-10-26T12:59:17.229Z,50.85
2022-10-26T13:02:12.090Z,51.04
2022-10-26T13:04:57.287Z,50.37
2022-10-26T13:07:26.504Z,50.26
2022-10-26T13:10:11.541Z,51.15
2022-10-26T13:12:56.475Z,51.90
2022-10-26T13:15:31.576Z,51.90
2022-10-26T13:18:02.625Z,51.74
2022-10-26T13:20:31.172Z,51.62
2022-10-26T13:22:58.805Z,51.32
2022-10-26T13:25:31.222Z,53.21
2022-10-26T13:28:31.740Z,60.96
2022-10-26T13:30:58.570Z,60.92
2022-10-26T13:33:41.002Z,62.96
2022-10-26T13:36:15.543Z,64.61
2022-10-26T13:38:43.094Z,66.06
2022-10-26T13:41:20.628Z,68.48
2022-10-26T13:43:48.649Z,70.47
2022-10-26T13:46:27.716Z,72.74
2022-10-26T13:49:01.461Z,74.86
2022-10-26T13:51:43.249Z,76.33
2022-10-26T13:54:36.945Z,77.17
2022-10-26T13:57:15.675Z,77.66
2022-10-26T13:59:45.715Z,76.21
2022-10-26T14:02:23.806Z,75.83
2022-10-26T14:05:00.324Z,73.07
2022-10-26T14:07:37.833Z,74.42
2022-10-26T14:10:05.172Z,75.14
2022-10-26T14:12:32.950Z,75.58
2022-10-26T14:15:07.573Z,76.53
2022-10-26T14:17:34.929Z,76.72
2022-10-26T14:20:04.212Z,76.33
2022-10-26T14:22:31.093Z,75.90
2022-10-26T14:24:59.890Z,76.29
2022-10-26T14:27:32.582Z,76.87
2022-10-26T14:30:21.707Z,77.21
2022-10-26T14:32:48.605Z,77.45
2022-10-26T14:35:16.209Z,77.82
2022-10-26T14:37:50.054Z,78.36
2022-10-26T14:40:20.820Z,78.84
2022-10-26T14:42:51.648Z,79.45
2022-10-26T14:45:55.112Z,79.74
2022-10-26T14:48:31.511Z,81.01
2022-10-26T14:51:16.338Z,81.64
2022-10-26T14:53:49.926Z,82.83
2022-10-26T14:56:46.470Z,84.13
2022-10-26T14:59:22.438Z,85.00
2022-10-26T15:01:50.749Z,85.98
2022-10-26T15:04:32.787Z,86.26
2022-10-26T15:07:07.873Z,86.89
2022-10-26T15:09:51.758Z,87.48
2022-10-26T15:27:36.945Z,92.42
2022-10-26T15:30:20.039Z,91.51
2022-10-26T15:32:47.377Z,90.64
2022-10-26T15:35:19.440Z,90.26
2022-10-26T15:37:47.363Z,90.03
2022-10-26T15:40:15.425Z,89.85
2022-10-26T15:42:45.407Z,89.53
2022-10-26T15:45:27.151Z,89.70
2022-10-26T15:47:57.718Z,89.78
2022-10-26T15:50:27.677Z,90.08
2022-10-26T15:53:01.613Z,90.18
2022-10-26T15:55:30.426Z,90.18
2022-10-26T15:57:57.289Z,90.20
2022-10-26T16:00:24.201Z,90.26
2022-10-26T16:02:51.020Z,90.64
2022-10-26T16:05:18.077Z,90.49
2022-10-26T16:07:47.920Z,90.55
2022-10-26T16:10:23.738Z,91.27
2022-10-26T16:12:51.249Z,91.33
2022-10-26T16:15:20.698Z,91.59
2022-10-26T16:17:49.156Z,91.66
2022-10-26T16:20:23.010Z,92.92
2022-10-26T16:22:52.471Z,92.67
2022-10-26T16:25:24.997Z,92.38
2022-10-26T16:27:54.334Z,93.24
2022-10-26T16:30:25.803Z,92.83
2022-10-26T16:32:54.061Z,92.65
2022-10-26T16:35:20.942Z,92.52
2022-10-26T16:37:47.929Z,92.94
2022-10-26T16:40:14.853Z,92.60
2022-10-26T16:42:44.023Z,93.31
2022-10-26T16:45:12.572Z,92.37
2022-10-26T16:47:40.293Z,92.61
2022-10-26T16:50:11.941Z,94.55
2022-10-26T16:52:39.642Z,93.63
2022-10-26T16:55:08.280Z,93.80
2022-10-26T16:57:36.549Z,93.81
2022-10-26T17:00:06.022Z,94.05
2022-10-26T17:02:33.179Z,95.43
2022-10-26T17:05:02.851Z,94.49
2022-10-26T17:07:32.897Z,94.74
2022-10-26T17:09:59.847Z,94.71
2022-10-26T17:15:00.700Z,96.07
2022-10-26T17:17:27.665Z,96.28
2022-10-26T17:19:54.601Z,96.74
2022-10-26T17:22:21.456Z,96.56
2022-10-26T17:24:48.304Z,95.81
2022-10-26T17:27:17.014Z,95.89
2022-10-26T17:29:43.874Z,96.88
2022-10-26T17:32:10.972Z,96.90
2022-10-26T17:34:37.897Z,96.89
2022-10-26T17:37:04.749Z,97.70
2022-10-26T17:39:31.566Z,97.92
2022-10-26T17:41:58.429Z,97.45
2022-10-26T17:44:25.470Z,97.74
2022-10-26T17:46:52.369Z,96.56
2022-10-26T17:49:22.267Z,96.35
2022-10-26T17:51:50.449Z,95.52
2022-10-26T17:56:49.024Z,96.22
2022-10-26T17:59:15.872Z,96.42
2022-10-26T18:01:43.526Z,97.02
2022-10-26T18:04:10.702Z,97.00
2022-10-26T18:06:37.574Z,96.55
2022-10-26T18:09:04.652Z,96.29
2022-10-26T18:14:03.570Z,96.30
2022-10-26T18:16:31.385Z,96.31
2022-10-26T18:19:04.487Z,96.24
2022-10-26T18:21:37.737Z,96.07
2022-10-26T18:24:05.913Z,95.27
2022-10-26T18:26:33.228Z,95.55
2022-10-26T18:29:01.990Z,95.50
2022-10-26T18:31:31.397Z,95.68
2022-10-26T18:34:03.291Z,95.37
2022-10-26T18:36:30.350Z,95.39
2022-10-26T18:38:57.878Z,95.04
2022-10-26T18:41:26.333Z,95.11
2022-10-26T18:43:56.634Z,94.66
2022-10-26T18:46:39.227Z,94.22
2022-10-26T18:49:06.408Z,94.23
2022-10-26T18:51:34.870Z,93.72
2022-10-26T18:54:02.252Z,93.72
2022-10-26T18:56:29.547Z,93.03
2022-10-26T18:58:58.834Z,92.63
2022-10-26T19:01:29.075Z,92.69
2022-10-26T19:03:58.728Z,92.50
2022-10-26T19:06:28.467Z,92.44
2022-10-26T19:08:56.184Z,91.67
2022-10-26T19:11:25.220Z,91.81
2022-10-26T19:13:55.163Z,91.85
2022-10-26T19:16:44.510Z,91.60
2022-10-26T19:19:11.692Z,91.45
2022-10-26T19:21:38.638Z,91.04
2022-10-26T19:24:12.079Z,91.24
2022-10-26T19:26:42.586Z,91.17
2022-10-26T19:29:16.015Z,91.27
2022-10-26T19:31:47.714Z,91.82
2022-10-26T19:34:15.944Z,90.92
2022-10-26T19:36:45.159Z,91.14
2022-10-26T19:39:14.187Z,91.50
2022-10-26T19:41:41.068Z,91.40
2022-10-26T19:44:08.004Z,91.29
2022-10-26T19:46:34.966Z,91.26
2022-10-26T19:49:02.509Z,91.13
2022-10-26T19:51:30.969Z,91.32
2022-10-26T19:54:03.173Z,90.89
2022-10-26T19:56:32.692Z,89.71
2022-10-26T19:58:59.646Z,89.18
2022-10-26T20:01:26.854Z,88.41
2022-10-26T20:03:53.927Z,88.04
2022-10-26T20:06:20.841Z,87.70
2022-10-26T20:08:49.188Z,86.89
2022-10-26T20:11:18.079Z,86.15
2022-10-26T20:13:46.386Z,86.11
2022-10-26T20:16:15.081Z,85.69
2022-10-26T20:18:45.753Z,85.03
2022-10-26T20:21:16.481Z,84.67
2022-10-26T20:23:44.274Z,84.75
2022-10-26T20:26:18.373Z,84.08
2022-10-26T20:28:48.196Z,83.96
2022-10-26T20:31:15.141Z,83.57
2022-10-26T20:33:42.485Z,83.19
2022-10-26T20:36:09.677Z,83.21
2022-10-26T20:38:36.887Z,82.98
2022-10-26T20:41:07.690Z,83.06
2022-10-26T20:43:39.441Z,82.47
2022-10-26T20:46:11.431Z,82.67
2022-10-26T20:48:38.901Z,83.64
2022-10-26T20:53:59.611Z,82.00
2022-10-26T20:56:26.970Z,81.87
2022-10-26T20:58:56.124Z,82.27
2022-10-26T21:01:27.799Z,82.01
2022-10-26T21:03:56.792Z,81.59
2022-10-26T21:06:24.987Z,81.20
2022-10-26T21:08:53.725Z,81.54
2022-10-26T21:11:21.925Z,81.34
2022-10-26T21:13:49.839Z,81.28
2022-10-26T21:16:17.953Z,80.90
2022-10-26T21:18:45.314Z,80.66
2022-10-26T21:21:12.445Z,80.19
2022-10-26T21:23:41.083Z,79.76
2022-10-26T21:26:09.110Z,79.55
2022-10-26T21:28:45.704Z,80.15
2022-10-26T21:31:15.129Z,80.04
2022-10-26T21:33:42.197Z,81.16
2022-10-26T21:36:14.177Z,80.49
2022-10-26T21:38:43.308Z,81.08
2022-10-26T21:41:18.071Z,81.46
2022-10-26T21:43:48.248Z,82.72
2022-10-26T21:46:16.854Z,83.18
2022-10-26T21:48:43.941Z,83.77
2022-10-26T21:51:17.060Z,84.55
2022-10-26T21:53:44.652Z,84.32
2022-10-26T21:56:14.492Z,85.64
2022-10-26T21:58:41.689Z,86.74
2022-10-26T22:01:11.338Z,87.63
2022-10-26T22:03:39.409Z,89.21
2022-10-26T22:06:08.493Z,90.36
2022-10-26T22:08:36.314Z,91.45
2022-10-26T22:11:15.574Z,92.27
2022-10-26T22:13:44.160Z,92.82
2022-10-26T22:16:13.617Z,93.68
2022-10-26T22:18:43.209Z,94.04
2022-10-26T22:21:11.109Z,94.03
2022-10-26T22:23:40.438Z,94.30
2022-10-26T22:26:18.870Z,94.57
2022-10-26T22:28:47.536Z,94.25
2022-10-26T22:31:17.726Z,93.60
2022-10-26T22:33:45.300Z,93.04
2022-10-26T22:36:15.275Z,92.62
2022-10-26T22:38:42.548Z,92.70
2022-10-26T22:41:10.417Z,92.03
2022-10-26T22:43:37.358Z,92.12
2022-10-26T22:46:05.905Z,92.36
2022-10-26T22:48:34.395Z,91.81
2022-10-26T22:51:06.494Z,91.88
2022-10-26T22:53:33.434Z,91.40
2022-10-26T22:58:45.496Z,91.66
2022-10-26T23:01:21.504Z,91.17
2022-10-26T23:03:48.954Z,91.19
2022-10-26T23:06:18.917Z,91.52
2022-10-26T23:08:49.645Z,91.74
2022-10-26T23:11:19.061Z,92.03
2022-10-26T23:13:46.041Z,92.30
2022-10-26T23:16:17.782Z,92.34
2022-10-26T23:18:45.144Z,92.48
2022-10-26T23:21:14.454Z,92.17
2022-10-26T23:23:48.133Z,92.60
2022-10-26T23:26:18.103Z,92.83
2022-10-26T23:28:47.950Z,92.89
2022-10-26T23:31:20.286Z,93.37
2022-10-26T23:33:51.561Z,92.92
2022-10-26T23:36:19.076Z,93.22
2022-10-26T23:38:46.747Z,93.15
2022-10-26T23:41:13.791Z,92.99
2022-10-26T23:43:40.850Z,93.20
2022-10-26T23:46:07.923Z,93.51
2022-10-26T23:48:34.754Z,93.70
2022-10-26T23:51:01.607Z,93.72
2022-10-26T23:53:28.595Z,93.35
2022-10-26T23:55:55.578Z,93.94
2022-10-26T23:58:22.532Z,93.43
